createdAt,value
2023-03-28T00:01:07.515Z,89
2023-03-28T00:03:11.702Z,89
2023-03-28T00:05:08.479Z,89
2023-03-28T00:07:07.500Z,89
2023-03-28T00:09:09.232Z,89
2023-03-28T00:11:07.452Z,89
2023-03-28T00:13:07.511Z,89
2023-03-28T00:15:07.556Z,89
2023-03-28T00:17:07.463Z,89
2023-03-28T00:19:07.530Z,89
2023-03-28T00:21:07.553Z,89
2023-03-28T00:23:09.103Z,89
2023-03-28T00:25:07.484Z,89
2023-03-28T00:27:07.526Z,89
2023-03-28T00:31:07.815Z,89
2023-03-28T00:33:11.049Z,89
2023-03-28T00:37:07.520Z,89
2023-03-28T00:39:15.479Z,89
2023-03-28T00:41:09.076Z,89
2023-03-28T00:43:10.523Z,89
2023-03-28T00:45:11.244Z,89
2023-03-28T00:47:07.554Z,89
2023-03-28T00:49:07.500Z,89
2023-03-28T00:53:07.484Z,89
2023-03-28T00:55:07.758Z,89
2023-03-28T00:57:07.326Z,89
2023-03-28T00:59:07.473Z,89
2023-03-28T01:01:11.277Z,89
2023-03-28T01:03:07.534Z,89
2023-03-28T01:05:13.851Z,89
2023-03-28T01:07:07.818Z,89
2023-03-28T01:09:07.529Z,89
2023-03-28T01:11:07.599Z,89
2023-03-28T01:13:09.148Z,89
2023-03-28T01:15:07.521Z,89
2023-03-28T01:17:07.542Z,89
2023-03-28T01:19:07.482Z,89
2023-03-28T01:21:11.062Z,89
2023-03-28T01:27:10.578Z,89
2023-03-28T01:29:09.083Z,89
2023-03-28T01:31:07.490Z,89
2023-03-28T01:33:07.535Z,89
2023-03-28T01:35:11.105Z,89
2023-03-28T01:37:11.915Z,89
2023-03-28T01:39:07.486Z,89
2023-03-28T01:43:07.803Z,89
2023-03-28T01:45:07.532Z,89
2023-03-28T01:47:07.473Z,89
2023-03-28T01:49:07.967Z,89
2023-03-28T01:51:07.640Z,89
2023-03-28T01:55:07.577Z,89
2023-03-28T01:57:07.544Z,89
2023-03-28T01:59:07.515Z,89
2023-03-28T02:01:07.514Z,89
2023-03-28T02:03:07.654Z,89
2023-03-28T02:07:07.518Z,89
2023-03-28T02:09:07.533Z,89
2023-03-28T02:11:07.498Z,89
2023-03-28T02:13:07.522Z,89
2023-03-28T02:15:07.864Z,89
2023-03-28T02:17:07.495Z,89
2023-03-28T02:19:07.476Z,89
2023-03-28T02:21:07.544Z,89
2023-03-28T02:23:07.537Z,89
2023-03-28T02:25:07.504Z,89
2023-03-28T02:29:07.520Z,89
2023-03-28T02:31:14.661Z,89
2023-03-28T02:33:08.001Z,89
2023-03-28T02:35:11.138Z,89
2023-03-28T02:37:08.457Z,89
2023-03-28T02:39:07.520Z,89
2023-03-28T02:41:09.250Z,88
2023-03-28T02:43:07.506Z,88
2023-03-28T02:45:07.550Z,88
2023-03-28T02:47:07.490Z,88
2023-03-28T02:49:11.136Z,88
2023-03-28T02:51:07.523Z,88
2023-03-28T02:53:07.512Z,88
2023-03-28T02:55:11.611Z,88
2023-03-28T02:57:07.547Z,88
2023-03-28T02:59:07.603Z,88
2023-03-28T03:01:07.565Z,88
2023-03-28T03:03:07.635Z,88
2023-03-28T03:05:07.616Z,88
2023-03-28T03:07:07.532Z,88
2023-03-28T03:09:11.218Z,88
2023-03-28T03:11:11.156Z,88
2023-03-28T03:13:07.515Z,88
2023-03-28T03:15:11.617Z,88
2023-03-28T03:17:11.292Z,88
2023-03-28T03:19:07.505Z,88
2023-03-28T03:21:07.628Z,88
2023-03-28T03:23:07.548Z,88
2023-03-28T03:25:07.917Z,88
2023-03-28T03:27:07.557Z,88
2023-03-28T03:29:07.551Z,89
2023-03-28T03:31:07.565Z,89
2023-03-28T03:35:10.738Z,89
2023-03-28T03:37:07.507Z,88
2023-03-28T03:39:07.608Z,88
2023-03-28T03:41:11.228Z,88
2023-03-28T03:43:07.523Z,89
2023-03-28T03:45:11.396Z,89
2023-03-28T03:47:07.575Z,88
2023-03-28T03:49:07.535Z,88
2023-03-28T03:51:07.597Z,88
2023-03-28T03:53:07.331Z,88
2023-03-28T03:55:09.654Z,88
2023-03-28T03:57:11.430Z,88
2023-03-28T03:59:07.981Z,88
2023-03-28T04:01:07.568Z,88
2023-03-28T04:03:24.389Z,88
2023-03-28T04:05:11.242Z,88
2023-03-28T04:09:07.592Z,88
2023-03-28T04:11:07.546Z,88
2023-03-28T04:13:07.586Z,88
2023-03-28T04:15:09.570Z,88
2023-03-28T04:17:07.578Z,88
2023-03-28T04:19:07.515Z,88
2023-03-28T04:21:14.886Z,88
2023-03-28T04:27:07.526Z,88
2023-03-28T04:29:07.542Z,88
2023-03-28T04:33:07.607Z,88
2023-03-28T04:35:09.149Z,88
2023-03-28T04:37:07.507Z,88
2023-03-28T04:39:07.616Z,88
2023-03-28T04:43:07.520Z,88
2023-03-28T04:45:10.650Z,88
2023-03-28T04:47:07.607Z,88
2023-03-28T04:49:10.504Z,88
2023-03-28T04:51:10.971Z,88
2023-03-28T04:55:07.504Z,88
2023-03-28T04:57:07.649Z,88
2023-03-28T04:59:07.575Z,88
2023-03-28T05:01:07.561Z,88
2023-03-28T05:03:07.630Z,88
2023-03-28T05:05:07.504Z,88
2023-03-28T05:07:07.584Z,88
2023-03-28T05:09:07.594Z,88
2023-03-28T05:11:07.550Z,88
2023-03-28T05:13:11.311Z,88
2023-03-28T05:15:07.558Z,88
2023-03-28T05:17:11.162Z,88
2023-03-28T05:19:07.533Z,88
2023-03-28T05:21:09.459Z,88
2023-03-28T05:23:10.724Z,88
2023-03-28T05:25:07.489Z,88
2023-03-28T05:29:11.199Z,88
2023-03-28T05:31:12.818Z,88
2023-03-28T05:33:07.588Z,88
2023-03-28T05:35:10.625Z,88
2023-03-28T05:37:07.514Z,88
2023-03-28T05:41:07.574Z,88
2023-03-28T05:43:07.534Z,87
2023-03-28T05:47:07.568Z,87
2023-03-28T05:49:07.609Z,86
2023-03-28T05:51:09.254Z,86
2023-03-28T05:53:07.534Z,86
2023-03-28T05:59:07.557Z,86
2023-03-28T06:01:14.373Z,86
2023-03-28T06:03:16.317Z,86
2023-03-28T06:05:11.201Z,86
2023-03-28T06:07:07.509Z,86
2023-03-28T06:09:07.610Z,86
2023-03-28T06:11:07.540Z,86
2023-03-28T06:13:07.502Z,86
2023-03-28T06:17:11.367Z,86
2023-03-28T06:19:17.593Z,85
2023-03-28T06:21:07.587Z,85
2023-03-28T06:23:07.836Z,84
2023-03-28T06:25:07.536Z,84
2023-03-28T06:27:09.161Z,84
2023-03-28T06:29:15.526Z,84
2023-03-28T06:31:07.559Z,84
2023-03-28T06:33:07.617Z,84
2023-03-28T06:35:10.768Z,84
2023-03-28T06:37:07.534Z,84
2023-03-28T06:39:11.319Z,85
2023-03-28T06:41:15.882Z,85
2023-03-28T06:43:07.521Z,85
2023-03-28T06:45:07.579Z,84
2023-03-28T06:49:07.555Z,78
2023-03-28T06:51:15.251Z,74
2023-03-28T06:53:09.178Z,71
2023-03-28T06:55:07.518Z,78
2023-03-28T06:57:07.641Z,79
2023-03-28T06:59:07.575Z,74
2023-03-28T07:01:12.940Z,73
2023-03-28T07:03:07.646Z,72
2023-03-28T07:05:07.862Z,74
2023-03-28T07:07:07.530Z,73
2023-03-28T07:09:11.148Z,72
2023-03-28T07:13:07.548Z,71
2023-03-28T07:15:07.599Z,73
2023-03-28T07:17:07.599Z,72
2023-03-28T07:19:07.594Z,72
2023-03-28T07:21:07.675Z,73
2023-03-28T07:23:07.562Z,73
2023-03-28T07:25:07.573Z,72
2023-03-28T07:29:11.362Z,73
2023-03-28T07:31:07.606Z,78
2023-03-28T07:33:17.101Z,79
2023-03-28T07:37:08.662Z,69
2023-03-28T07:39:07.596Z,75
2023-03-28T07:41:07.576Z,71
2023-03-28T07:43:10.887Z,77
2023-03-28T07:45:11.276Z,71
2023-03-28T07:47:08.658Z,75
2023-03-28T07:49:07.559Z,77
2023-03-28T07:51:07.385Z,74
2023-03-28T07:53:07.590Z,74
2023-03-28T07:57:07.528Z,79
2023-03-28T07:59:11.099Z,77
2023-03-28T08:01:07.553Z,77
2023-03-28T08:03:07.611Z,73
2023-03-28T08:05:07.628Z,77
2023-03-28T08:07:09.217Z,78
2023-03-28T08:09:11.284Z,74
2023-03-28T08:11:11.033Z,78
2023-03-28T08:13:11.188Z,75
2023-03-28T08:15:07.569Z,73
2023-03-28T08:17:07.571Z,76
2023-03-28T08:19:11.599Z,77
2023-03-28T08:23:09.147Z,76
2023-03-28T08:27:07.963Z,78
2023-03-28T08:29:07.706Z,77
2023-03-28T08:31:07.603Z,78
2023-03-28T08:33:07.722Z,79
2023-03-28T08:35:11.228Z,77
2023-03-28T08:37:07.549Z,76
2023-03-28T08:39:07.395Z,70
2023-03-28T08:41:07.573Z,68
2023-03-28T08:43:07.577Z,71
2023-03-28T08:45:07.564Z,72
2023-03-28T08:47:07.511Z,74
2023-03-28T08:49:07.568Z,74
2023-03-28T08:51:07.684Z,73
2023-03-28T08:53:07.843Z,68
2023-03-28T08:55:07.544Z,68
2023-03-28T08:57:07.729Z,70
2023-03-28T08:59:07.623Z,72
2023-03-28T09:01:07.776Z,68
2023-03-28T09:03:07.713Z,64
2023-03-28T09:09:07.593Z,71
2023-03-28T09:11:08.496Z,71
2023-03-28T09:13:07.548Z,66
2023-03-28T09:15:07.592Z,67
2023-03-28T09:17:07.658Z,67
2023-03-28T09:21:11.068Z,64
2023-03-28T09:23:11.463Z,68
2023-03-28T09:25:15.442Z,64
2023-03-28T09:27:11.424Z,61
2023-03-28T09:29:07.558Z,61
2023-03-28T09:31:07.580Z,65
2023-03-28T09:33:07.398Z,66
2023-03-28T09:35:11.009Z,65
2023-03-28T09:37:07.898Z,64
2023-03-28T09:39:07.572Z,63
2023-03-28T09:41:07.590Z,61
2023-03-28T09:43:07.681Z,61
2023-03-28T09:45:07.627Z,59
2023-03-28T09:47:10.667Z,59
2023-03-28T09:49:07.542Z,61
2023-03-28T09:51:10.725Z,59
2023-03-28T09:53:07.535Z,59
2023-03-28T09:55:07.534Z,60
2023-03-28T09:57:07.591Z,61
2023-03-28T09:59:07.537Z,64
2023-03-28T10:01:07.949Z,64
2023-03-28T10:03:07.623Z,61
2023-03-28T10:05:07.588Z,59
2023-03-28T10:07:10.944Z,61
2023-03-28T10:09:10.972Z,63
2023-03-28T10:11:07.569Z,70
2023-03-28T10:13:07.548Z,66
2023-03-28T10:15:09.266Z,60
2023-03-28T10:17:06.106Z,61
2023-03-28T10:19:11.524Z,59
2023-03-28T10:21:11.497Z,59
2023-03-28T10:23:07.560Z,61
2023-03-28T10:25:07.600Z,61
2023-03-28T10:27:10.800Z,58
2023-03-28T10:29:07.586Z,60
2023-03-28T10:31:07.725Z,59
2023-03-28T10:33:07.678Z,56
2023-03-28T10:35:10.552Z,54
2023-03-28T10:37:07.565Z,54
2023-03-28T10:39:07.588Z,54
2023-03-28T10:41:07.575Z,56
2023-03-28T10:43:07.598Z,59
2023-03-28T10:45:10.790Z,58
2023-03-28T10:47:07.557Z,58
2023-03-28T10:49:10.992Z,54
2023-03-28T10:51:12.960Z,57
2023-03-28T10:53:14.860Z,57
2023-03-28T10:55:09.206Z,58
2023-03-28T10:57:07.652Z,60
2023-03-28T10:59:07.569Z,58
2023-03-28T11:01:09.198Z,61
2023-03-28T11:03:13.629Z,65
2023-03-28T11:07:07.590Z,63
2023-03-28T11:09:07.603Z,59
2023-03-28T11:11:07.566Z,60
2023-03-28T11:13:07.590Z,54
2023-03-28T11:15:07.590Z,54
2023-03-28T11:17:07.610Z,56
2023-03-28T11:19:07.626Z,56
2023-03-28T11:21:07.581Z,58
2023-03-28T11:23:07.626Z,57
2023-03-28T11:25:07.601Z,57
2023-03-28T11:29:11.339Z,58
2023-03-28T11:31:07.636Z,59
2023-03-28T11:33:07.627Z,57
2023-03-28T11:35:07.615Z,60
2023-03-28T11:37:07.567Z,70
2023-03-28T11:41:11.436Z,57
2023-03-28T11:43:07.591Z,56
2023-03-28T11:45:07.608Z,55
2023-03-28T11:49:07.637Z,53
2023-03-28T11:51:07.641Z,51
2023-03-28T11:53:09.300Z,53
2023-03-28T11:55:13.765Z,54
2023-03-28T11:57:07.650Z,52
2023-03-28T11:59:07.598Z,54
2023-03-28T12:03:11.128Z,52
2023-03-28T12:05:11.029Z,53
2023-03-28T12:07:07.569Z,52
2023-03-28T12:09:11.219Z,52
2023-03-28T12:13:07.567Z,54
2023-03-28T12:15:09.275Z,50
2023-03-28T12:17:07.738Z,52
2023-03-28T12:19:07.582Z,55
2023-03-28T12:21:07.793Z,52
2023-03-28T12:25:09.250Z,53
2023-03-28T12:27:07.628Z,52
2023-03-28T12:29:07.608Z,53
2023-03-28T12:31:11.358Z,52
2023-03-28T12:33:11.305Z,53
2023-03-28T12:37:11.112Z,52
2023-03-28T12:41:07.802Z,55
2023-03-28T12:43:07.580Z,54
2023-03-28T12:45:07.642Z,52
2023-03-28T12:47:10.508Z,52
2023-03-28T12:49:07.546Z,52
2023-03-28T12:51:07.620Z,52
2023-03-28T12:53:07.635Z,55
2023-03-28T12:55:07.581Z,55
2023-03-28T12:57:07.709Z,49
2023-03-28T12:59:07.586Z,51
2023-03-28T13:01:07.659Z,52
2023-03-28T13:03:10.954Z,53
2023-03-28T13:07:08.234Z,50
2023-03-28T13:09:07.663Z,51
2023-03-28T13:11:07.656Z,52
2023-03-28T13:13:07.989Z,52
2023-03-28T13:15:07.644Z,56
2023-03-28T13:17:10.842Z,55
2023-03-28T13:19:07.600Z,55
2023-03-28T13:21:07.762Z,53
2023-03-28T13:25:07.615Z,51
2023-03-28T13:27:11.203Z,50
2023-03-28T13:29:11.959Z,49
2023-03-28T13:33:10.878Z,51
2023-03-28T13:35:07.598Z,50
2023-03-28T13:37:07.572Z,51
2023-03-28T13:39:14.649Z,51
2023-03-28T13:41:07.604Z,52
2023-03-28T13:43:11.129Z,52
2023-03-28T13:47:07.638Z,51
2023-03-28T13:49:09.243Z,50
2023-03-28T13:51:07.630Z,50
2023-03-28T13:53:07.628Z,53
2023-03-28T13:55:10.633Z,50
2023-03-28T13:57:07.675Z,49
2023-03-28T13:59:07.585Z,48
2023-03-28T14:01:09.266Z,49
2023-03-28T14:03:07.655Z,51
2023-03-28T14:07:07.626Z,51
2023-03-28T14:09:07.744Z,50
2023-03-28T14:11:07.603Z,49
2023-03-28T14:13:07.658Z,49
2023-03-28T14:17:11.362Z,50
2023-03-28T14:19:14.607Z,51
2023-03-28T14:21:11.397Z,51
2023-03-28T14:23:07.657Z,53
2023-03-28T14:25:07.949Z,53
2023-03-28T14:27:07.674Z,52
2023-03-28T14:29:11.422Z,53
2023-03-28T14:31:07.592Z,51
2023-03-28T14:33:07.922Z,51
2023-03-28T14:35:07.646Z,50
2023-03-28T14:37:07.594Z,51
2023-03-28T14:39:14.549Z,51
2023-03-28T14:41:07.591Z,52
2023-03-28T14:43:07.671Z,52
2023-03-28T14:45:07.634Z,58
2023-03-28T14:47:07.961Z,56
2023-03-28T14:49:07.629Z,51
2023-03-28T14:51:07.632Z,50
2023-03-28T14:53:07.650Z,49
2023-03-28T14:55:07.649Z,50
2023-03-28T14:57:09.265Z,49
2023-03-28T14:59:14.864Z,49
2023-03-28T15:03:07.673Z,49
2023-03-28T15:05:07.629Z,49
2023-03-28T15:07:07.556Z,50
2023-03-28T15:09:11.439Z,50
2023-03-28T15:11:07.636Z,51
2023-03-28T15:13:10.665Z,51
2023-03-28T15:15:11.446Z,50
2023-03-28T15:17:11.252Z,50
2023-03-28T15:19:07.587Z,51
2023-03-28T15:21:07.633Z,48
2023-03-28T15:23:11.216Z,50
2023-03-28T15:25:11.823Z,50
2023-03-28T15:27:07.632Z,50
2023-03-28T15:29:11.552Z,50
2023-03-28T15:31:07.615Z,51
2023-03-28T15:33:11.120Z,52
2023-03-28T15:35:12.607Z,51
2023-03-28T15:37:12.972Z,50
2023-03-28T15:39:07.665Z,50
2023-03-28T15:41:07.920Z,50
2023-03-28T15:43:09.268Z,52
2023-03-28T15:45:07.685Z,52
2023-03-28T15:47:07.601Z,52
2023-03-28T15:49:14.710Z,52
2023-03-28T15:51:10.292Z,52
2023-03-28T15:53:11.266Z,52
2023-03-28T15:55:07.688Z,52
2023-03-28T15:57:07.672Z,50
2023-03-28T15:59:07.650Z,51
2023-03-28T16:01:07.635Z,53
2023-03-28T16:03:11.446Z,49
2023-03-28T16:05:14.690Z,51
2023-03-28T16:13:12.930Z,52
2023-03-28T16:15:11.406Z,53
2023-03-28T16:19:07.639Z,50
2023-03-28T16:21:07.435Z,49
2023-03-28T16:23:07.612Z,49
2023-03-28T16:25:12.000Z,50
2023-03-28T16:27:11.406Z,49
2023-03-28T16:29:11.193Z,50
2023-03-28T16:31:07.642Z,50
2023-03-28T16:33:07.797Z,51
2023-03-28T16:35:07.632Z,50
2023-03-28T16:37:07.604Z,51
2023-03-28T16:39:07.715Z,52
2023-03-28T16:41:12.584Z,51
2023-03-28T16:43:07.618Z,51
2023-03-28T16:45:07.655Z,50
2023-03-28T16:47:07.623Z,50
2023-03-28T16:49:07.619Z,50
2023-03-28T16:51:08.033Z,50
2023-03-28T16:53:07.594Z,50
2023-03-28T16:55:11.347Z,50
2023-03-28T16:57:07.663Z,50
2023-03-28T17:01:07.738Z,50
2023-03-28T17:03:07.817Z,50
2023-03-28T17:07:07.654Z,50
2023-03-28T17:09:07.708Z,49
2023-03-28T17:11:07.604Z,50
2023-03-28T17:13:07.716Z,51
2023-03-28T17:15:11.248Z,52
2023-03-28T17:17:09.290Z,52
2023-03-28T17:19:09.256Z,52
2023-03-28T17:21:07.630Z,52
2023-03-28T17:23:07.629Z,52
2023-03-28T17:25:07.671Z,53
2023-03-28T17:27:07.960Z,53
2023-03-28T17:29:10.948Z,54
2023-03-28T17:31:07.673Z,55
2023-03-28T17:33:07.733Z,54
2023-03-28T17:35:10.744Z,54
2023-03-28T17:37:07.673Z,55
2023-03-28T17:39:07.655Z,56
2023-03-28T17:41:09.339Z,56
2023-03-28T17:43:07.616Z,56
2023-03-28T17:45:11.317Z,57
2023-03-28T17:47:07.642Z,57
2023-03-28T17:49:07.649Z,57
2023-03-28T17:51:07.679Z,58
2023-03-28T17:53:07.628Z,58
2023-03-28T17:55:07.612Z,57
2023-03-28T17:57:10.700Z,58
2023-03-28T17:59:07.631Z,59
2023-03-28T18:01:11.444Z,60
2023-03-28T18:03:07.741Z,60
2023-03-28T18:05:10.658Z,60
2023-03-28T18:07:15.644Z,60
2023-03-28T18:09:07.644Z,61
2023-03-28T18:11:09.274Z,61
2023-03-28T18:13:07.649Z,61
2023-03-28T18:15:07.689Z,61
2023-03-28T18:17:07.669Z,62
2023-03-28T18:19:09.300Z,62
2023-03-28T18:21:10.773Z,61
2023-03-28T18:23:07.579Z,61
2023-03-28T18:25:07.811Z,62
2023-03-28T18:27:08.032Z,61
2023-03-28T18:29:11.348Z,61
2023-03-28T18:31:13.638Z,60
2023-03-28T18:33:14.648Z,61
2023-03-28T18:35:07.597Z,61
2023-03-28T18:37:11.127Z,60
2023-03-28T18:39:07.624Z,61
2023-03-28T18:41:11.542Z,60
2023-03-28T18:47:07.625Z,62
2023-03-28T18:49:07.596Z,62
2023-03-28T18:51:07.638Z,62
2023-03-28T18:53:07.692Z,63
2023-03-28T18:55:07.614Z,63
2023-03-28T18:59:11.804Z,64
2023-03-28T19:01:07.642Z,65
2023-03-28T19:03:14.292Z,65
2023-03-28T19:07:07.646Z,65
2023-03-28T19:09:09.399Z,65
2023-03-28T19:13:07.957Z,65
2023-03-28T19:15:07.642Z,64
2023-03-28T19:17:07.602Z,65
2023-03-28T19:19:11.117Z,64
2023-03-28T19:21:07.643Z,63
2023-03-28T19:25:09.276Z,63
2023-03-28T19:27:07.668Z,63
2023-03-28T19:29:12.372Z,63
2023-03-28T19:31:07.799Z,63
2023-03-28T19:33:09.284Z,63
2023-03-28T19:35:07.648Z,63
2023-03-28T19:37:07.691Z,63
2023-03-28T19:39:07.664Z,63
2023-03-28T19:41:15.784Z,63
2023-03-28T19:45:07.489Z,62
2023-03-28T19:47:07.646Z,62
2023-03-28T19:51:10.809Z,61
2023-03-28T19:53:11.295Z,61
2023-03-28T19:55:07.632Z,61
2023-03-28T19:57:08.479Z,62
2023-03-28T19:59:09.205Z,62
2023-03-28T20:01:10.129Z,61
2023-03-28T20:03:07.708Z,63
2023-03-28T20:05:07.652Z,63
2023-03-28T20:07:07.654Z,63
2023-03-28T20:09:09.323Z,63
2023-03-28T20:11:10.925Z,63
2023-03-28T20:13:07.610Z,63
2023-03-28T20:17:07.890Z,62
2023-03-28T20:19:07.628Z,62
2023-03-28T20:21:07.679Z,62
2023-03-28T20:23:11.673Z,62
2023-03-28T20:25:07.637Z,62
2023-03-28T20:27:11.095Z,63
2023-03-28T20:29:07.635Z,62
2023-03-28T20:31:07.739Z,62
2023-03-28T20:33:11.327Z,61
2023-03-28T20:35:07.681Z,62
2023-03-28T20:37:09.246Z,62
2023-03-28T20:39:08.015Z,62
2023-03-28T20:41:07.615Z,61
2023-03-28T20:43:08.274Z,61
2023-03-28T20:45:07.955Z,61
2023-03-28T20:47:07.730Z,61
2023-03-28T20:49:07.597Z,61
2023-03-28T20:51:07.670Z,60
2023-03-28T20:53:07.664Z,61
2023-03-28T20:55:09.240Z,61
2023-03-28T20:57:07.669Z,60
2023-03-28T20:59:07.615Z,61
2023-03-28T21:01:07.677Z,61
2023-03-28T21:03:07.651Z,60
2023-03-28T21:05:09.316Z,60
2023-03-28T21:07:07.690Z,60
2023-03-28T21:09:07.666Z,61
2023-03-28T21:11:12.457Z,60
2023-03-28T21:13:07.629Z,60
2023-03-28T21:15:07.653Z,61
2023-03-28T21:17:07.728Z,61
2023-03-28T21:19:13.916Z,61
2023-03-28T21:21:11.345Z,61
2023-03-28T21:23:07.640Z,62
2023-03-28T21:25:14.638Z,62
2023-03-28T21:27:07.676Z,62
2023-03-28T21:29:07.610Z,63
2023-03-28T21:31:07.633Z,63
2023-03-28T21:35:07.831Z,63
2023-03-28T21:41:11.296Z,62
2023-03-28T21:43:10.888Z,63
2023-03-28T21:45:07.672Z,63
2023-03-28T21:47:07.625Z,62
2023-03-28T21:49:11.096Z,62
2023-03-28T21:53:07.625Z,62
2023-03-28T21:55:07.618Z,62
2023-03-28T21:57:07.783Z,62
2023-03-28T21:59:07.641Z,62
2023-03-28T22:01:07.750Z,62
2023-03-28T22:03:08.073Z,62
2023-03-28T22:05:12.895Z,62
2023-03-28T22:07:09.274Z,62
2023-03-28T22:09:07.683Z,62
2023-03-28T22:11:11.526Z,63
2023-03-28T22:13:07.667Z,63
2023-03-28T22:15:07.704Z,63
2023-03-28T22:17:07.673Z,63
2023-03-28T22:21:14.487Z,64
2023-03-28T22:23:07.655Z,66
2023-03-28T22:25:07.624Z,66
2023-03-28T22:29:07.618Z,66
2023-03-28T22:31:07.697Z,66
2023-03-28T22:33:07.692Z,70
2023-03-28T22:35:07.634Z,69
2023-03-28T22:37:15.533Z,71
2023-03-28T22:39:07.665Z,71
2023-03-28T22:41:11.174Z,68
2023-03-28T22:43:12.949Z,69
2023-03-28T22:45:09.383Z,70
2023-03-28T22:47:07.651Z,72
2023-03-28T22:49:07.614Z,73
2023-03-28T22:51:07.659Z,74
2023-03-28T22:53:07.618Z,73
2023-03-28T22:55:09.322Z,72
2023-03-28T22:57:10.820Z,69
2023-03-28T22:59:07.654Z,72
2023-03-28T23:01:11.166Z,69
2023-03-28T23:03:07.749Z,72
2023-03-28T23:05:11.707Z,73
2023-03-28T23:07:11.335Z,66
2023-03-28T23:09:07.744Z,66
2023-03-28T23:11:08.040Z,68
2023-03-28T23:15:07.705Z,74
2023-03-28T23:21:10.823Z,68
2023-03-28T23:25:07.729Z,70
2023-03-28T23:27:09.560Z,70
2023-03-28T23:29:07.710Z,73
2023-03-28T23:31:07.463Z,70
2023-03-28T23:33:11.317Z,71
2023-03-28T23:37:10.781Z,73
2023-03-28T23:39:14.825Z,72
2023-03-28T23:41:07.668Z,73
2023-03-28T23:43:07.655Z,68
2023-03-28T23:45:07.694Z,70
2023-03-28T23:47:07.604Z,73
2023-03-28T23:49:08.104Z,73
2023-03-28T23:51:07.946Z,75
2023-03-28T23:53:14.766Z,75
2023-03-28T23:55:07.705Z,76
2023-03-28T23:57:07.667Z,77
2023-03-28T23:59:07.680Z,78
